sensor_id;sensor_type;location;lat;lon;timestamp;temperature;humidity
29577;DHT22;16509;53.862;10.672;2022-07-30T00:01:02;18.30;99.90
29577;DHT22;16509;53.862;10.672;2022-07-30T00:03:28;17.90;99.90
29577;DHT22;16509;53.862;10.672;2022-07-30T00:05:53;18.10;99.90
29577;DHT22;16509;53.862;10.672;2022-07-30T00:08:22;18.30;99.90
29577;DHT22;16509;53.862;10.672;2022-07-30T00:10:49;18.10;99.90
29577;DHT22;16509;53.862;10.672;2022-07-30T00:13:14;18.10;99.90
29577;DHT22;16509;53.862;10.672;2022-07-30T00:15:40;20.00;99.90
29577;DHT22;16509;53.862;10.672;2022-07-30T00:18:05;18.10;99.90
29577;DHT22;16509;53.862;10.672;2022-07-30T00:20:31;18.10;99.90
29577;DHT22;16509;53.862;10.672;2022-07-30T00:22:57;18.10;99.90
29577;DHT22;16509;53.862;10.672;2022-07-30T00:25:22;18.20;99.90
29577;DHT22;16509;53.862;10.672;2022-07-30T00:27:48;18.10;99.90
29577;DHT22;16509;53.862;10.672;2022-07-30T00:30:14;18.10;99.90
29577;DHT22;16509;53.862;10.672;2022-07-30T00:32:40;17.90;99.90
29577;DHT22;16509;53.862;10.672;2022-07-30T00:35:06;17.90;99.90
29577;DHT22;16509;53.862;10.672;2022-07-30T00:37:32;18.00;99.90
29577;DHT22;16509;53.862;10.672;2022-07-30T00:39:57;17.90;99.90
29577;DHT22;16509;53.862;10.672;2022-07-30T00:42:23;17.80;99.90
29577;DHT22;16509;53.862;10.672;2022-07-30T00:44:52;17.70;99.90
29577;DHT22;16509;53.862;10.672;2022-07-30T00:47:18;17.80;99.90
29577;DHT22;16509;53.862;10.672;2022-07-30T00:49:44;17.90;99.90
29577;DHT22;16509;53.862;10.672;2022-07-30T00:52:10;18.00;99.90
29577;DHT22;16509;53.862;10.672;2022-07-30T00:54:35;17.80;99.90
29577;DHT22;16509;53.862;10.672;2022-07-30T00:57:01;17.80;99.90
29577;DHT22;16509;53.862;10.672;2022-07-30T00:59:27;17.70;99.90
29577;DHT22;16509;53.862;10.672;2022-07-30T01:01:53;18.20;99.90
29577;DHT22;16509;53.862;10.672;2022-07-30T01:04:19;17.80;99.90
29577;DHT22;16509;53.862;10.672;2022-07-30T01:06:45;17.60;99.90
29577;DHT22;16509;53.862;10.672;2022-07-30T01:09:10;17.70;99.90
29577;DHT22;16509;53.862;10.672;2022-07-30T01:11:38;17.70;99.90
29577;DHT22;16509;53.862;10.672;2022-07-30T01:14:05;17.60;99.90
29577;DHT22;16509;53.862;10.672;2022-07-30T01:16:35;17.30;99.90
29577;DHT22;16509;53.862;10.672;2022-07-30T01:19:05;17.50;99.90
29577;DHT22;16509;53.862;10.672;2022-07-30T01:21:58;17.60;99.90
29577;DHT22;16509;53.862;10.672;2022-07-30T01:24:37;17.50;99.90
29577;DHT22;16509;53.862;10.672;2022-07-30T01:27:06;17.60;99.90
29577;DHT22;16509;53.862;10.672;2022-07-30T01:29:33;17.60;99.90
29577;DHT22;16509;53.862;10.672;2022-07-30T01:32:00;17.30;99.90
29577;DHT22;16509;53.862;10.672;2022-07-30T01:34:29;17.20;99.90
29577;DHT22;16509;53.862;10.672;2022-07-30T01:36:57;17.40;99.90
29577;DHT22;16509;53.862;10.672;2022-07-30T01:39:25;17.30;99.90
29577;DHT22;16509;53.862;10.672;2022-07-30T01:41:53;17.40;99.90
29577;DHT22;16509;53.862;10.672;2022-07-30T01:44:21;16.30;99.90
29577;DHT22;16509;53.862;10.672;2022-07-30T01:46:48;17.40;99.90
29577;DHT22;16509;53.862;10.672;2022-07-30T01:49:14;17.30;99.90
29577;DHT22;16509;53.862;10.672;2022-07-30T01:51:42;17.70;99.90
29577;DHT22;16509;53.862;10.672;2022-07-30T01:54:11;17.30;99.90
29577;DHT22;16509;53.862;10.672;2022-07-30T01:56:38;17.70;99.90
29577;DHT22;16509;53.862;10.672;2022-07-30T01:59:07;17.20;99.90
29577;DHT22;16509;53.862;10.672;2022-07-30T02:01:35;18.00;99.90
29577;DHT22;16509;53.862;10.672;2022-07-30T02:04:02;17.40;99.90
29577;DHT22;16509;53.862;10.672;2022-07-30T02:06:39;17.50;99.90
29577;DHT22;16509;53.862;10.672;2022-07-30T02:09:07;17.40;99.90
29577;DHT22;16509;53.862;10.672;2022-07-30T02:11:43;17.20;99.90
29577;DHT22;16509;53.862;10.672;2022-07-30T02:14:37;17.20;99.90
29577;DHT22;16509;53.862;10.672;2022-07-30T02:17:04;17.20;99.90
29577;DHT22;16509;53.862;10.672;2022-07-30T02:19:35;17.50;99.90
29577;DHT22;16509;53.862;10.672;2022-07-30T02:22:05;17.20;99.90
29577;DHT22;16509;53.862;10.672;2022-07-30T02:24:33;17.20;99.90
29577;DHT22;16509;53.862;10.672;2022-07-30T02:27:05;17.30;99.90
29577;DHT22;16509;53.862;10.672;2022-07-30T02:29:34;17.20;99.90
29577;DHT22;16509;53.862;10.672;2022-07-30T02:32:08;17.20;99.90
29577;DHT22;16509;53.862;10.672;2022-07-30T02:34:34;17.20;99.90
29577;DHT22;16509;53.862;10.672;2022-07-30T02:37:01;17.20;99.90
29577;DHT22;16509;53.862;10.672;2022-07-30T02:39:28;17.30;99.90
29577;DHT22;16509;53.862;10.672;2022-07-30T02:41:56;17.40;99.90
29577;DHT22;16509;53.862;10.672;2022-07-30T02:44:22;17.30;99.90
29577;DHT22;16509;53.862;10.672;2022-07-30T02:46:50;17.30;99.90
29577;DHT22;16509;53.862;10.672;2022-07-30T02:49:20;18.50;99.90
29577;DHT22;16509;53.862;10.672;2022-07-30T02:51:52;17.20;99.90
29577;DHT22;16509;53.862;10.672;2022-07-30T02:54:20;17.30;99.90
29577;DHT22;16509;53.862;10.672;2022-07-30T02:56:48;17.50;99.90
29577;DHT22;16509;53.862;10.672;2022-07-30T02:59:16;17.40;99.90
29577;DHT22;16509;53.862;10.672;2022-07-30T03:01:44;17.30;99.90
29577;DHT22;16509;53.862;10.672;2022-07-30T03:04:12;17.40;99.90
29577;DHT22;16509;53.862;10.672;2022-07-30T03:06:39;17.30;99.90
29577;DHT22;16509;53.862;10.672;2022-07-30T03:09:06;17.20;99.90
29577;DHT22;16509;53.862;10.672;2022-07-30T03:11:34;17.70;99.90
29577;DHT22;16509;53.862;10.672;2022-07-30T03:14:00;17.20;99.90
29577;DHT22;16509;53.862;10.672;2022-07-30T03:16:27;17.40;99.90
29577;DHT22;16509;53.862;10.672;2022-07-30T03:18:56;17.20;99.90
29577;DHT22;16509;53.862;10.672;2022-07-30T03:21:25;17.30;99.90
29577;DHT22;16509;53.862;10.672;2022-07-30T03:23:52;16.80;99.90
29577;DHT22;16509;53.862;10.672;2022-07-30T03:26:20;17.40;99.90
29577;DHT22;16509;53.862;10.672;2022-07-30T03:28:46;17.50;99.90
29577;DHT22;16509;53.862;10.672;2022-07-30T03:31:14;17.20;99.90
29577;DHT22;16509;53.862;10.672;2022-07-30T03:33:40;17.90;99.90
29577;DHT22;16509;53.862;10.672;2022-07-30T03:36:07;16.80;99.90
29577;DHT22;16509;53.862;10.672;2022-07-30T03:38:37;16.90;99.90
29577;DHT22;16509;53.862;10.672;2022-07-30T03:41:05;17.40;99.90
29577;DHT22;16509;53.862;10.672;2022-07-30T03:43:31;17.40;99.90
29577;DHT22;16509;53.862;10.672;2022-07-30T03:45:59;17.20;99.90
29577;DHT22;16509;53.862;10.672;2022-07-30T03:48:25;17.20;99.90
29577;DHT22;16509;53.862;10.672;2022-07-30T03:50:52;17.00;99.90
29577;DHT22;16509;53.862;10.672;2022-07-30T03:53:19;17.10;99.90
29577;DHT22;16509;53.862;10.672;2022-07-30T03:55:48;16.70;99.90
29577;DHT22;16509;53.862;10.672;2022-07-30T03:58:14;17.20;99.90
29577;DHT22;16509;53.862;10.672;2022-07-30T04:00:40;17.50;99.90
29577;DHT22;16509;53.862;10.672;2022-07-30T04:03:06;17.10;99.90
29577;DHT22;16509;53.862;10.672;2022-07-30T04:05:32;17.30;99.90
29577;DHT22;16509;53.862;10.672;2022-07-30T04:07:57;17.10;99.90
29577;DHT22;16509;53.862;10.672;2022-07-30T04:10:23;17.30;99.90
29577;DHT22;16509;53.862;10.672;2022-07-30T04:12:48;18.80;99.90
29577;DHT22;16509;53.862;10.672;2022-07-30T04:15:14;17.60;99.90
29577;DHT22;16509;53.862;10.672;2022-07-30T04:17:48;17.50;99.90
29577;DHT22;16509;53.862;10.672;2022-07-30T04:20:26;19.20;99.90
29577;DHT22;16509;53.862;10.672;2022-07-30T04:22:52;17.30;99.90
29577;DHT22;16509;53.862;10.672;2022-07-30T04:25:19;17.30;99.90
29577;DHT22;16509;53.862;10.672;2022-07-30T04:27:46;17.60;99.90
29577;DHT22;16509;53.862;10.672;2022-07-30T04:30:12;17.10;99.90
29577;DHT22;16509;53.862;10.672;2022-07-30T04:32:38;17.50;99.90
29577;DHT22;16509;53.862;10.672;2022-07-30T04:35:04;17.40;99.90
29577;DHT22;16509;53.862;10.672;2022-07-30T04:37:30;17.40;99.90
29577;DHT22;16509;53.862;10.672;2022-07-30T04:39:56;18.20;99.90
29577;DHT22;16509;53.862;10.672;2022-07-30T04:42:25;17.60;99.90
29577;DHT22;16509;53.862;10.672;2022-07-30T04:44:51;17.70;99.90
29577;DHT22;16509;53.862;10.672;2022-07-30T04:47:18;17.80;99.90
29577;DHT22;16509;53.862;10.672;2022-07-30T04:49:44;17.70;99.90
29577;DHT22;16509;53.862;10.672;2022-07-30T04:52:11;17.80;99.90
29577;DHT22;16509;53.862;10.672;2022-07-30T04:54:41;17.60;99.90
29577;DHT22;16509;53.862;10.672;2022-07-30T04:57:09;17.80;99.90
29577;DHT22;16509;53.862;10.672;2022-07-30T04:59:36;17.70;99.90
29577;DHT22;16509;53.862;10.672;2022-07-30T05:02:03;17.70;99.90
29577;DHT22;16509;53.862;10.672;2022-07-30T05:04:31;18.50;99.90
29577;DHT22;16509;53.862;10.672;2022-07-30T05:06:59;17.70;99.90
29577;DHT22;16509;53.862;10.672;2022-07-30T05:09:26;17.80;99.90
29577;DHT22;16509;53.862;10.672;2022-07-30T05:11:53;18.00;99.90
29577;DHT22;16509;53.862;10.672;2022-07-30T05:14:20;18.60;99.90
29577;DHT22;16509;53.862;10.672;2022-07-30T05:16:45;18.20;99.90
29577;DHT22;16509;53.862;10.672;2022-07-30T05:19:11;17.90;99.90
29577;DHT22;16509;53.862;10.672;2022-07-30T05:21:37;18.30;99.90
29577;DHT22;16509;53.862;10.672;2022-07-30T05:24:02;18.20;99.90
29577;DHT22;16509;53.862;10.672;2022-07-30T05:26:28;18.10;99.90
29577;DHT22;16509;53.862;10.672;2022-07-30T05:28:54;18.20;99.90
29577;DHT22;16509;53.862;10.672;2022-07-30T05:31:20;17.90;99.90
29577;DHT22;16509;53.862;10.672;2022-07-30T05:33:45;18.20;99.90
29577;DHT22;16509;53.862;10.672;2022-07-30T05:36:11;18.20;99.90
29577;DHT22;16509;53.862;10.672;2022-07-30T05:38:37;18.50;99.90
29577;DHT22;16509;53.862;10.672;2022-07-30T05:41:02;18.10;99.90
29577;DHT22;16509;53.862;10.672;2022-07-30T05:43:28;18.30;99.90
29577;DHT22;16509;53.862;10.672;2022-07-30T05:45:54;18.40;99.90
29577;DHT22;16509;53.862;10.672;2022-07-30T05:48:19;18.10;99.90
29577;DHT22;16509;53.862;10.672;2022-07-30T05:50:45;18.40;99.90
29577;DHT22;16509;53.862;10.672;2022-07-30T05:53:10;18.20;99.90
29577;DHT22;16509;53.862;10.672;2022-07-30T05:55:36;18.30;99.90
29577;DHT22;16509;53.862;10.672;2022-07-30T05:58:01;18.20;99.90
29577;DHT22;16509;53.862;10.672;2022-07-30T06:00:27;18.20;99.90
29577;DHT22;16509;53.862;10.672;2022-07-30T06:02:53;18.70;99.90
29577;DHT22;16509;53.862;10.672;2022-07-30T06:05:18;18.20;99.90
29577;DHT22;16509;53.862;10.672;2022-07-30T06:07:44;18.20;99.90
29577;DHT22;16509;53.862;10.672;2022-07-30T06:10:10;18.20;99.90
29577;DHT22;16509;53.862;10.672;2022-07-30T06:12:36;18.30;99.90
29577;DHT22;16509;53.862;10.672;2022-07-30T06:15:02;18.20;99.90
29577;DHT22;16509;53.862;10.672;2022-07-30T06:17:28;18.60;99.90
29577;DHT22;16509;53.862;10.672;2022-07-30T06:19:54;18.30;99.90
29577;DHT22;16509;53.862;10.672;2022-07-30T06:22:19;18.60;99.90
29577;DHT22;16509;53.862;10.672;2022-07-30T06:24:45;18.30;99.90
29577;DHT22;16509;53.862;10.672;2022-07-30T06:27:11;18.20;99.90
29577;DHT22;16509;53.862;10.672;2022-07-30T06:29:36;18.60;99.90
29577;DHT22;16509;53.862;10.672;2022-07-30T06:32:03;18.30;99.90
29577;DHT22;16509;53.862;10.672;2022-07-30T06:34:29;18.20;99.90
29577;DHT22;16509;53.862;10.672;2022-07-30T06:36:54;18.20;99.90
29577;DHT22;16509;53.862;10.672;2022-07-30T06:39:20;18.20;99.90
29577;DHT22;16509;53.862;10.672;2022-07-30T06:41:45;18.20;99.90
29577;DHT22;16509;53.862;10.672;2022-07-30T06:44:11;18.50;99.90
29577;DHT22;16509;53.862;10.672;2022-07-30T06:46:37;18.30;99.90
29577;DHT22;16509;53.862;10.672;2022-07-30T06:49:02;18.50;99.90
29577;DHT22;16509;53.862;10.672;2022-07-30T06:51:28;18.40;99.90
29577;DHT22;16509;53.862;10.672;2022-07-30T06:53:53;18.50;99.90
29577;DHT22;16509;53.862;10.672;2022-07-30T06:56:19;18.30;99.90
29577;DHT22;16509;53.862;10.672;2022-07-30T06:58:44;18.60;99.90
29577;DHT22;16509;53.862;10.672;2022-07-30T07:01:10;18.70;99.90
29577;DHT22;16509;53.862;10.672;2022-07-30T07:03:36;18.70;99.90
29577;DHT22;16509;53.862;10.672;2022-07-30T07:06:01;18.70;99.90
29577;DHT22;16509;53.862;10.672;2022-07-30T07:08:29;19.40;99.90
29577;DHT22;16509;53.862;10.672;2022-07-30T07:10:56;19.00;99.90
29577;DHT22;16509;53.862;10.672;2022-07-30T07:13:21;18.90;99.90
29577;DHT22;16509;53.862;10.672;2022-07-30T07:15:47;19.00;99.90
29577;DHT22;16509;53.862;10.672;2022-07-30T07:18:13;19.00;99.90
29577;DHT22;16509;53.862;10.672;2022-07-30T07:20:39;19.10;99.90
29577;DHT22;16509;53.862;10.672;2022-07-30T07:23:05;19.80;99.90
29577;DHT22;16509;53.862;10.672;2022-07-30T07:25:30;19.20;99.90
29577;DHT22;16509;53.862;10.672;2022-07-30T07:27:56;19.30;99.90
29577;DHT22;16509;53.862;10.672;2022-07-30T07:30:21;19.40;99.90
29577;DHT22;16509;53.862;10.672;2022-07-30T07:32:47;19.40;99.90
29577;DHT22;16509;53.862;10.672;2022-07-30T07:35:13;19.50;99.90
29577;DHT22;16509;53.862;10.672;2022-07-30T07:37:38;19.50;99.90
29577;DHT22;16509;53.862;10.672;2022-07-30T07:40:05;19.60;99.90
29577;DHT22;16509;53.862;10.672;2022-07-30T07:42:30;19.70;99.90
29577;DHT22;16509;53.862;10.672;2022-07-30T07:44:56;19.70;99.90
29577;DHT22;16509;53.862;10.672;2022-07-30T07:47:22;19.80;99.90
29577;DHT22;16509;53.862;10.672;2022-07-30T07:49:47;19.90;99.90
29577;DHT22;16509;53.862;10.672;2022-07-30T07:52:13;19.90;99.90
29577;DHT22;16509;53.862;10.672;2022-07-30T07:54:38;19.90;99.90
29577;DHT22;16509;53.862;10.672;2022-07-30T07:57:04;20.00;99.90
29577;DHT22;16509;53.862;10.672;2022-07-30T07:59:32;20.00;99.90
29577;DHT22;16509;53.862;10.672;2022-07-30T08:01:58;20.20;99.90
29577;DHT22;16509;53.862;10.672;2022-07-30T08:04:24;22.50;99.90
29577;DHT22;16509;53.862;10.672;2022-07-30T08:06:50;20.20;99.90
29577;DHT22;16509;53.862;10.672;2022-07-30T08:09:15;20.50;99.90
29577;DHT22;16509;53.862;10.672;2022-07-30T08:11:41;20.10;99.90
29577;DHT22;16509;53.862;10.672;2022-07-30T08:14:06;20.10;99.90
29577;DHT22;16509;53.862;10.672;2022-07-30T08:16:32;20.20;99.90
29577;DHT22;16509;53.862;10.672;2022-07-30T08:18:57;20.20;99.90
29577;DHT22;16509;53.862;10.672;2022-07-30T08:21:23;20.20;99.90
29577;DHT22;16509;53.862;10.672;2022-07-30T08:23:49;20.40;99.90
29577;DHT22;16509;53.862;10.672;2022-07-30T08:26:15;20.40;99.90
29577;DHT22;16509;53.862;10.672;2022-07-30T08:28:40;20.50;99.90
29577;DHT22;16509;53.862;10.672;2022-07-30T08:31:07;20.50;99.90
29577;DHT22;16509;53.862;10.672;2022-07-30T08:33:33;20.40;99.90
29577;DHT22;16509;53.862;10.672;2022-07-30T08:36:00;20.70;99.90
29577;DHT22;16509;53.862;10.672;2022-07-30T08:38:25;20.60;99.90
29577;DHT22;16509;53.862;10.672;2022-07-30T08:40:54;20.80;99.90
29577;DHT22;16509;53.862;10.672;2022-07-30T08:43:20;22.50;99.90
29577;DHT22;16509;53.862;10.672;2022-07-30T08:45:46;20.80;99.90
29577;DHT22;16509;53.862;10.672;2022-07-30T08:48:13;20.70;99.90
29577;DHT22;16509;53.862;10.672;2022-07-30T08:50:39;20.70;99.90
29577;DHT22;16509;53.862;10.672;2022-07-30T08:53:06;20.80;99.90
29577;DHT22;16509;53.862;10.672;2022-07-30T08:55:32;20.90;99.90
29577;DHT22;16509;53.862;10.672;2022-07-30T08:57:57;20.90;99.90
29577;DHT22;16509;53.862;10.672;2022-07-30T09:00:23;21.00;99.90
29577;DHT22;16509;53.862;10.672;2022-07-30T09:02:49;21.20;99.90
29577;DHT22;16509;53.862;10.672;2022-07-30T09:05:14;21.20;99.90
29577;DHT22;16509;53.862;10.672;2022-07-30T09:07:40;21.80;99.90
29577;DHT22;16509;53.862;10.672;2022-07-30T09:10:08;21.30;99.90
29577;DHT22;16509;53.862;10.672;2022-07-30T09:12:41;21.20;99.90
29577;DHT22;16509;53.862;10.672;2022-07-30T09:15:10;21.40;99.90
29577;DHT22;16509;53.862;10.672;2022-07-30T09:17:53;21.50;99.90
29577;DHT22;16509;53.862;10.672;2022-07-30T09:20:21;21.50;99.90
29577;DHT22;16509;53.862;10.672;2022-07-30T09:22:54;21.60;99.90
29577;DHT22;16509;53.862;10.672;2022-07-30T09:27:58;21.60;99.90
29577;DHT22;16509;53.862;10.672;2022-07-30T09:30:23;21.50;99.90
29577;DHT22;16509;53.862;10.672;2022-07-30T09:32:52;21.50;99.90
29577;DHT22;16509;53.862;10.672;2022-07-30T09:35:18;22.10;99.90
29577;DHT22;16509;53.862;10.672;2022-07-30T09:37:44;21.70;99.90
29577;DHT22;16509;53.862;10.672;2022-07-30T09:40:12;21.90;99.90
29577;DHT22;16509;53.862;10.672;2022-07-30T09:42:38;21.90;99.90
29577;DHT22;16509;53.862;10.672;2022-07-30T09:45:12;22.00;99.90
29577;DHT22;16509;53.862;10.672;2022-07-30T09:47:43;22.00;99.90
29577;DHT22;16509;53.862;10.672;2022-07-30T09:50:15;22.10;99.90
29577;DHT22;16509;53.862;10.672;2022-07-30T09:52:43;22.10;99.90
29577;DHT22;16509;53.862;10.672;2022-07-30T09:55:10;22.10;99.90
29577;DHT22;16509;53.862;10.672;2022-07-30T09:57:56;22.30;99.90
29577;DHT22;16509;53.862;10.672;2022-07-30T10:00:24;22.40;99.90
29577;DHT22;16509;53.862;10.672;2022-07-30T10:02:51;22.40;99.90
29577;DHT22;16509;53.862;10.672;2022-07-30T10:05:18;22.40;99.90
29577;DHT22;16509;53.862;10.672;2022-07-30T10:08:02;22.50;99.90
29577;DHT22;16509;53.862;10.672;2022-07-30T10:10:29;22.40;99.90
29577;DHT22;16509;53.862;10.672;2022-07-30T10:13:03;23.50;99.90
29577;DHT22;16509;53.862;10.672;2022-07-30T10:15:33;22.70;99.90
29577;DHT22;16509;53.862;10.672;2022-07-30T10:18:00;23.30;99.90
29577;DHT22;16509;53.862;10.672;2022-07-30T10:20:27;23.00;99.90
29577;DHT22;16509;53.862;10.672;2022-07-30T10:22:53;23.10;99.90
29577;DHT22;16509;53.862;10.672;2022-07-30T10:25:20;23.20;99.90
29577;DHT22;16509;53.862;10.672;2022-07-30T10:27:47;24.90;99.90
29577;DHT22;16509;53.862;10.672;2022-07-30T10:30:13;23.20;99.90
29577;DHT22;16509;53.862;10.672;2022-07-30T10:32:39;23.30;99.90
29577;DHT22;16509;53.862;10.672;2022-07-30T10:35:07;23.90;99.90
29577;DHT22;16509;53.862;10.672;2022-07-30T10:37:34;23.90;99.90
29577;DHT22;16509;53.862;10.672;2022-07-30T10:45:44;24.30;99.90
29577;DHT22;16509;53.862;10.672;2022-07-30T10:48:14;24.50;99.90
29577;DHT22;16509;53.862;10.672;2022-07-30T10:50:56;24.70;99.90
29577;DHT22;16509;53.862;10.672;2022-07-30T10:53:42;25.10;99.90
29577;DHT22;16509;53.862;10.672;2022-07-30T10:56:13;25.30;99.90
29577;DHT22;16509;53.862;10.672;2022-07-30T10:59:08;25.40;99.90
29577;DHT22;16509;53.862;10.672;2022-07-30T11:04:19;25.80;99.90
29577;DHT22;16509;53.862;10.672;2022-07-30T11:06:45;25.90;99.90
29577;DHT22;16509;53.862;10.672;2022-07-30T11:09:41;26.00;99.90
29577;DHT22;16509;53.862;10.672;2022-07-30T11:12:08;25.80;99.90
29577;DHT22;16509;53.862;10.672;2022-07-30T11:17:16;26.20;99.90
29577;DHT22;16509;53.862;10.672;2022-07-30T11:22:28;26.30;99.90
29577;DHT22;16509;53.862;10.672;2022-07-30T11:24:56;26.60;99.90
29577;DHT22;16509;53.862;10.672;2022-07-30T11:27:43;26.80;99.90
29577;DHT22;16509;53.862;10.672;2022-07-30T11:32:45;27.40;99.90
29577;DHT22;16509;53.862;10.672;2022-07-30T11:38:02;28.00;99.90
29577;DHT22;16509;53.862;10.672;2022-07-30T11:40:36;28.20;99.90
29577;DHT22;16509;53.862;10.672;2022-07-30T11:43:20;28.00;99.90
29577;DHT22;16509;53.862;10.672;2022-07-30T11:46:13;27.60;99.90
29577;DHT22;16509;53.862;10.672;2022-07-30T11:49:03;27.60;99.90
29577;DHT22;16509;53.862;10.672;2022-07-30T11:51:39;27.80;99.90
29577;DHT22;16509;53.862;10.672;2022-07-30T11:54:07;27.80;99.90
29577;DHT22;16509;53.862;10.672;2022-07-30T11:56:34;27.20;99.90
29577;DHT22;16509;53.862;10.672;2022-07-30T11:59:04;27.00;99.90
29577;DHT22;16509;53.862;10.672;2022-07-30T12:01:30;27.30;99.90
29577;DHT22;16509;53.862;10.672;2022-07-30T12:04:00;27.60;99.90
29577;DHT22;16509;53.862;10.672;2022-07-30T12:06:26;28.00;99.90
29577;DHT22;16509;53.862;10.672;2022-07-30T12:08:52;28.30;99.90
29577;DHT22;16509;53.862;10.672;2022-07-30T12:11:18;28.70;99.90
29577;DHT22;16509;53.862;10.672;2022-07-30T12:13:57;28.90;99.90
29577;DHT22;16509;53.862;10.672;2022-07-30T12:16:25;29.30;99.90
29577;DHT22;16509;53.862;10.672;2022-07-30T12:18:51;29.00;99.90
29577;DHT22;16509;53.862;10.672;2022-07-30T12:21:17;29.00;99.90
29577;DHT22;16509;53.862;10.672;2022-07-30T12:23:56;29.20;99.90
29577;DHT22;16509;53.862;10.672;2022-07-30T12:26:30;29.40;99.90
29577;DHT22;16509;53.862;10.672;2022-07-30T12:28:57;29.00;99.90
29577;DHT22;16509;53.862;10.672;2022-07-30T12:31:23;29.20;99.90
29577;DHT22;16509;53.862;10.672;2022-07-30T12:33:49;29.10;99.90
29577;DHT22;16509;53.862;10.672;2022-07-30T12:36:32;29.70;99.90
29577;DHT22;16509;53.862;10.672;2022-07-30T12:39:00;28.80;99.90
29577;DHT22;16509;53.862;10.672;2022-07-30T12:41:46;29.00;99.90
29577;DHT22;16509;53.862;10.672;2022-07-30T12:44:38;28.90;99.90
29577;DHT22;16509;53.862;10.672;2022-07-30T12:47:16;28.70;99.90
29577;DHT22;16509;53.862;10.672;2022-07-30T12:49:43;28.70;99.90
29577;DHT22;16509;53.862;10.672;2022-07-30T12:52:08;28.80;99.90
29577;DHT22;16509;53.862;10.672;2022-07-30T12:54:34;28.30;99.90
29577;DHT22;16509;53.862;10.672;2022-07-30T12:57:03;27.90;99.90
29577;DHT22;16509;53.862;10.672;2022-07-30T12:59:30;27.70;99.90
29577;DHT22;16509;53.862;10.672;2022-07-30T13:01:57;27.20;99.90
29577;DHT22;16509;53.862;10.672;2022-07-30T13:04:24;27.10;99.90
29577;DHT22;16509;53.862;10.672;2022-07-30T13:07:06;27.00;99.90
29577;DHT22;16509;53.862;10.672;2022-07-30T13:09:33;26.70;99.90
29577;DHT22;16509;53.862;10.672;2022-07-30T13:11:59;26.60;99.90
29577;DHT22;16509;53.862;10.672;2022-07-30T13:14:25;28.00;99.90
29577;DHT22;16509;53.862;10.672;2022-07-30T13:16:52;26.30;99.90
29577;DHT22;16509;53.862;10.672;2022-07-30T13:19:18;26.10;99.90
29577;DHT22;16509;53.862;10.672;2022-07-30T13:21:44;26.10;99.90
29577;DHT22;16509;53.862;10.672;2022-07-30T13:24:11;26.40;99.90
29577;DHT22;16509;53.862;10.672;2022-07-30T13:26:36;26.10;99.90
29577;DHT22;16509;53.862;10.672;2022-07-30T13:29:03;26.40;99.90
29577;DHT22;16509;53.862;10.672;2022-07-30T13:31:28;26.70;99.90
29577;DHT22;16509;53.862;10.672;2022-07-30T13:33:54;26.70;99.90
29577;DHT22;16509;53.862;10.672;2022-07-30T13:36:19;26.80;99.90
29577;DHT22;16509;53.862;10.672;2022-07-30T13:38:45;26.90;99.90
29577;DHT22;16509;53.862;10.672;2022-07-30T13:41:11;27.20;99.90
29577;DHT22;16509;53.862;10.672;2022-07-30T13:43:37;27.60;99.90
29577;DHT22;16509;53.862;10.672;2022-07-30T13:46:04;27.20;99.90
29577;DHT22;16509;53.862;10.672;2022-07-30T13:48:30;27.30;99.90
29577;DHT22;16509;53.862;10.672;2022-07-30T13:50:56;27.20;99.90
29577;DHT22;16509;53.862;10.672;2022-07-30T13:53:22;27.30;99.90
29577;DHT22;16509;53.862;10.672;2022-07-30T13:55:47;26.70;99.90
29577;DHT22;16509;53.862;10.672;2022-07-30T13:58:13;26.40;99.90
29577;DHT22;16509;53.862;10.672;2022-07-30T14:00:39;26.40;99.90
29577;DHT22;16509;53.862;10.672;2022-07-30T14:03:07;26.20;99.90
29577;DHT22;16509;53.862;10.672;2022-07-30T14:05:34;26.20;99.90
29577;DHT22;16509;53.862;10.672;2022-07-30T14:08:00;25.90;99.90
29577;DHT22;16509;53.862;10.672;2022-07-30T14:10:26;25.70;99.90
29577;DHT22;16509;53.862;10.672;2022-07-30T14:12:53;25.70;99.90
29577;DHT22;16509;53.862;10.672;2022-07-30T14:15:23;26.00;99.90
29577;DHT22;16509;53.862;10.672;2022-07-30T14:17:49;25.90;99.90
29577;DHT22;16509;53.862;10.672;2022-07-30T14:20:15;25.80;99.90
29577;DHT22;16509;53.862;10.672;2022-07-30T14:22:40;25.60;99.90
29577;DHT22;16509;53.862;10.672;2022-07-30T14:25:07;25.80;99.90
29577;DHT22;16509;53.862;10.672;2022-07-30T14:27:32;25.80;99.90
29577;DHT22;16509;53.862;10.672;2022-07-30T14:29:58;25.90;99.90
29577;DHT22;16509;53.862;10.672;2022-07-30T14:32:24;26.00;99.90
29577;DHT22;16509;53.862;10.672;2022-07-30T14:34:50;25.90;99.90
29577;DHT22;16509;53.862;10.672;2022-07-30T14:37:15;25.90;99.90
29577;DHT22;16509;53.862;10.672;2022-07-30T14:39:41;25.90;99.90
29577;DHT22;16509;53.862;10.672;2022-07-30T14:42:06;25.70;99.90
29577;DHT22;16509;53.862;10.672;2022-07-30T14:44:32;25.50;99.90
29577;DHT22;16509;53.862;10.672;2022-07-30T14:46:58;25.40;99.90
29577;DHT22;16509;53.862;10.672;2022-07-30T14:49:23;26.10;99.90
29577;DHT22;16509;53.862;10.672;2022-07-30T14:51:49;25.60;99.90
29577;DHT22;16509;53.862;10.672;2022-07-30T14:54:15;25.50;99.90
29577;DHT22;16509;53.862;10.672;2022-07-30T14:56:41;25.70;99.90
29577;DHT22;16509;53.862;10.672;2022-07-30T14:59:06;26.00;99.90
29577;DHT22;16509;53.862;10.672;2022-07-30T15:01:32;25.70;99.90
29577;DHT22;16509;53.862;10.672;2022-07-30T15:03:58;25.60;99.90
29577;DHT22;16509;53.862;10.672;2022-07-30T15:06:24;25.70;99.90
29577;DHT22;16509;53.862;10.672;2022-07-30T15:08:50;25.60;99.90
29577;DHT22;16509;53.862;10.672;2022-07-30T15:11:16;26.40;99.90
29577;DHT22;16509;53.862;10.672;2022-07-30T15:13:41;25.80;99.90
29577;DHT22;16509;53.862;10.672;2022-07-30T15:16:07;25.80;99.90
29577;DHT22;16509;53.862;10.672;2022-07-30T15:18:32;25.70;99.90
29577;DHT22;16509;53.862;10.672;2022-07-30T15:20:58;25.70;99.90
29577;DHT22;16509;53.862;10.672;2022-07-30T15:23:24;26.30;99.90
29577;DHT22;16509;53.862;10.672;2022-07-30T15:25:50;26.40;99.90
29577;DHT22;16509;53.862;10.672;2022-07-30T15:28:15;25.70;99.90
29577;DHT22;16509;53.862;10.672;2022-07-30T15:30:41;25.60;99.90
29577;DHT22;16509;53.862;10.672;2022-07-30T15:33:07;25.60;99.90
29577;DHT22;16509;53.862;10.672;2022-07-30T15:35:33;25.50;99.90
29577;DHT22;16509;53.862;10.672;2022-07-30T15:37:58;25.60;99.90
29577;DHT22;16509;53.862;10.672;2022-07-30T15:40:24;25.50;99.90